createdAt,value
2022-10-23T00:01:46.173Z,98821.03
2022-10-23T00:04:16.101Z,98825.16
2022-10-23T00:06:46.003Z,98827.09
2022-10-23T00:09:16.174Z,98820.84
2022-10-23T00:11:47.414Z,98807.81
2022-10-23T00:14:16.007Z,98804.44
2022-10-23T00:16:43.708Z,98805.81
2022-10-23T00:19:11.632Z,98804.47
2022-10-23T00:21:39.734Z,98801.25
2022-10-23T00:26:43.099Z,98811.22
2022-10-23T00:29:11.708Z,98808.06
2022-10-23T00:31:39.722Z,98807.66
2022-10-23T00:34:08.487Z,98810.84
2022-10-23T00:36:36.583Z,98819.28
2022-10-23T00:39:05.008Z,98806.09
2022-10-23T00:41:34.177Z,98805.41
2022-10-23T00:44:08.883Z,98809.41
2022-10-23T00:46:37.847Z,98807.16
2022-10-23T00:49:06.889Z,98803.78
2022-10-23T00:51:39.538Z,98799.88
2022-10-23T00:54:25.008Z,98804.63
2022-10-23T00:56:57.176Z,98803.94
2022-10-23T00:59:25.125Z,98801.09
2022-10-23T01:01:53.074Z,98802.19
2022-10-23T01:04:21.293Z,98795.66
2022-10-23T01:07:00.377Z,98791.75
2022-10-23T01:09:32.638Z,98781.06
2022-10-23T01:12:11.323Z,98792.72
2022-10-23T01:14:45.733Z,98786.59
2022-10-23T01:17:15.139Z,98781.97
2022-10-23T01:19:52.658Z,98773.88
2022-10-23T01:22:42.282Z,98776.09
2022-10-23T01:25:24.439Z,98786.09
2022-10-23T01:27:57.162Z,98783.84
2022-10-23T01:30:24.946Z,98777.88
2022-10-23T01:32:57.648Z,98783.41
2022-10-23T01:35:29.336Z,98781.41
2022-10-23T01:38:07.281Z,98769.94
2022-10-23T01:40:39.388Z,98768.78
2022-10-23T01:43:14.069Z,98756.69
2022-10-23T01:45:45.149Z,98753.28
2022-10-23T01:48:22.777Z,98751.59
2022-10-23T01:50:53.690Z,98753.66
2022-10-23T01:53:23.242Z,98758.09
2022-10-23T01:55:52.037Z,98753.59
2022-10-23T01:58:27.376Z,98772.78
2022-10-23T02:01:00.190Z,98757.59
2022-10-23T02:03:32.006Z,98763.69
2022-10-23T02:06:00.219Z,98755.59
2022-10-23T02:08:28.120Z,98752.25
2022-10-23T02:11:01.483Z,98749.09
2022-10-23T02:13:37.369Z,98747.66
2022-10-23T02:16:15.312Z,98744.53
2022-10-23T02:18:52.109Z,98733.47
2022-10-23T02:21:25.811Z,98730.44
2022-10-23T02:23:58.730Z,98720.66
2022-10-23T02:26:28.995Z,98727.28
2022-10-23T02:29:02.826Z,98723.75
2022-10-23T02:31:32.428Z,98712.84
2022-10-23T02:34:00.177Z,98728.00
2022-10-23T02:36:27.950Z,98726.41
2022-10-23T02:38:55.904Z,98728.00
2022-10-23T02:41:38.203Z,98723.91
2022-10-23T02:44:29.648Z,98721.81
2022-10-23T02:47:21.156Z,98714.53
2022-10-23T02:49:58.399Z,98710.47
2022-10-23T02:52:32.584Z,98703.13
2022-10-23T02:55:15.219Z,98704.13
2022-10-23T02:57:56.028Z,98705.91
2022-10-23T03:00:26.041Z,98704.22
2022-10-23T03:02:58.134Z,98693.28
2022-10-23T03:05:31.383Z,98695.63
2022-10-23T03:07:59.453Z,98693.25
2022-10-23T03:10:27.222Z,98692.94
2022-10-23T03:12:54.981Z,98690.38
2022-10-23T03:15:22.763Z,98700.19
2022-10-23T03:17:53.506Z,98689.28
2022-10-23T03:20:22.592Z,98686.38
2022-10-23T03:22:50.330Z,98691.19
2022-10-23T03:25:18.305Z,98687.19
2022-10-23T03:27:46.601Z,98694.41
2022-10-23T03:30:17.002Z,98685.03
2022-10-23T03:32:48.351Z,98688.09
2022-10-23T03:35:17.630Z,98683.41
2022-10-23T03:37:45.541Z,98686.38
2022-10-23T03:40:13.693Z,98675.22
2022-10-23T03:42:41.386Z,98678.00
2022-10-23T03:45:11.934Z,98679.53
2022-10-23T03:47:41.426Z,98678.50
2022-10-23T03:50:10.894Z,98676.19
2022-10-23T03:52:40.543Z,98671.34
2022-10-23T03:55:09.462Z,98671.50
2022-10-23T03:57:37.776Z,98675.91
2022-10-23T04:00:08.659Z,98668.44
2022-10-23T04:02:44.309Z,98672.34
2022-10-23T04:05:12.973Z,98680.50
2022-10-23T04:07:45.877Z,98683.72
2022-10-23T04:10:13.593Z,98685.47
2022-10-23T04:12:41.574Z,98678.03
2022-10-23T04:15:10.252Z,98676.47
2022-10-23T04:17:38.001Z,98682.78
2022-10-23T04:20:06.417Z,98680.00
2022-10-23T04:22:34.078Z,98671.31
2022-10-23T04:25:03.347Z,98669.47
2022-10-23T04:27:34.342Z,98665.19
2022-10-23T04:30:03.638Z,98665.03
2022-10-23T04:32:32.261Z,98673.28
2022-10-23T04:34:59.951Z,98677.50
2022-10-23T04:37:28.014Z,98682.28
2022-10-23T04:39:55.775Z,98678.00
2022-10-23T04:42:24.825Z,98673.25
2022-10-23T04:44:52.727Z,98678.75
2022-10-23T04:47:20.558Z,98677.19
2022-10-23T04:49:57.198Z,98680.63
2022-10-23T04:52:45.291Z,98671.72
2022-10-23T04:55:31.756Z,98675.34
2022-10-23T04:58:12.725Z,98676.88
2022-10-23T05:00:40.463Z,98671.56
2022-10-23T05:03:08.772Z,98665.38
2022-10-23T05:05:40.836Z,98676.53
2022-10-23T05:08:25.040Z,98663.31
2022-10-23T05:11:19.220Z,98660.00
2022-10-23T05:13:51.125Z,98665.81
2022-10-23T05:16:30.650Z,98666.44
2022-10-23T05:18:59.811Z,98676.75
2022-10-23T05:21:33.156Z,98664.75
2022-10-23T05:24:02.007Z,98667.56
2022-10-23T05:26:30.052Z,98657.91
2022-10-23T05:28:59.561Z,98652.50
2022-10-23T05:31:27.469Z,98650.03
2022-10-23T05:34:02.491Z,98643.47
2022-10-23T05:36:30.733Z,98653.91
2022-10-23T05:38:59.218Z,98651.94
2022-10-23T05:41:27.668Z,98645.84
2022-10-23T05:44:00.210Z,98656.72
2022-10-23T05:46:50.457Z,98650.94
2022-10-23T05:49:41.214Z,98652.00
2022-10-23T05:52:12.201Z,98645.13
2022-10-23T05:54:47.481Z,98637.19
2022-10-23T05:57:22.244Z,98640.66
2022-10-23T05:59:53.599Z,98639.94
2022-10-23T06:02:24.200Z,98624.31
2022-10-23T06:05:02.007Z,98623.00
2022-10-23T06:07:49.410Z,98621.00
2022-10-23T06:10:18.958Z,98632.31
2022-10-23T06:12:48.918Z,98634.41
2022-10-23T06:15:20.059Z,98631.97
2022-10-23T06:18:01.869Z,98627.97
2022-10-23T06:20:32.136Z,98624.63
2022-10-23T06:23:09.459Z,98620.16
2022-10-23T06:25:59.983Z,98623.91
2022-10-23T06:28:36.175Z,98619.25
2022-10-23T06:31:07.101Z,98614.13
2022-10-23T06:33:35.030Z,98613.81
2022-10-23T06:36:10.210Z,98619.44
2022-10-23T06:38:40.763Z,98619.25
2022-10-23T06:41:14.034Z,98622.56
2022-10-23T06:43:41.962Z,98630.16
2022-10-23T06:46:49.353Z,98616.47
2022-10-23T06:49:35.766Z,98629.63
2022-10-23T06:52:04.436Z,98620.09
2022-10-23T06:54:32.441Z,98617.94
2022-10-23T06:57:20.105Z,98607.00
2022-10-23T06:59:48.043Z,98596.22
2022-10-23T07:02:18.393Z,98595.03
2022-10-23T07:04:46.204Z,98603.16
2022-10-23T07:07:19.073Z,98606.34
2022-10-23T07:09:49.469Z,98613.44
2022-10-23T07:12:26.452Z,98608.00
2022-10-23T07:15:09.914Z,98604.16
2022-10-23T07:17:39.271Z,98606.03
2022-10-23T07:20:07.852Z,98607.59
2022-10-23T07:22:36.233Z,98607.81
2022-10-23T07:25:09.366Z,98602.75
2022-10-23T07:27:40.751Z,98605.53
2022-10-23T07:30:11.659Z,98598.06
2022-10-23T07:32:47.260Z,98606.22
2022-10-23T07:35:38.582Z,98605.06
2022-10-23T07:38:15.732Z,98615.19
2022-10-23T07:40:47.331Z,98606.91
2022-10-23T07:43:18.443Z,98612.88
2022-10-23T07:45:48.374Z,98621.13
2022-10-23T07:48:43.697Z,98615.22
2022-10-23T07:51:14.995Z,98618.41
2022-10-23T07:53:46.211Z,98618.81
2022-10-23T07:56:42.428Z,98614.44
2022-10-23T07:59:26.141Z,98611.69
2022-10-23T08:01:56.720Z,98614.03
2022-10-23T08:04:34.414Z,98611.63
2022-10-23T08:07:13.546Z,98610.00
2022-10-23T08:09:44.134Z,98603.28
2022-10-23T08:12:12.099Z,98598.88
2022-10-23T08:14:40.374Z,98594.06
2022-10-23T08:17:09.698Z,98589.75
2022-10-23T08:20:13.588Z,98583.59
2022-10-23T08:22:43.485Z,98584.41
2022-10-23T08:25:13.472Z,98593.66
2022-10-23T08:27:41.437Z,98580.06
2022-10-23T08:30:10.884Z,98587.09
2022-10-23T08:32:38.714Z,98577.84
2022-10-23T08:35:07.882Z,98569.81
2022-10-23T08:37:38.764Z,98566.91
2022-10-23T08:40:07.808Z,98563.72
2022-10-23T08:43:00.202Z,98562.81
2022-10-23T08:45:34.243Z,98562.97
2022-10-23T08:48:23.516Z,98558.19
2022-10-23T08:51:30.086Z,98558.22
2022-10-23T08:54:03.871Z,98544.13
2022-10-23T08:56:35.397Z,98556.28
2022-10-23T08:59:08.823Z,98560.19
2022-10-23T09:01:41.800Z,98560.56
2022-10-23T09:04:12.419Z,98559.03
2022-10-23T09:06:46.454Z,98568.09
2022-10-23T09:09:44.988Z,98555.31
2022-10-23T09:12:15.109Z,98545.75
2022-10-23T09:15:05.376Z,98544.09
2022-10-23T09:17:35.610Z,98553.97
2022-10-23T09:20:17.229Z,98558.75
2022-10-23T09:22:46.024Z,98558.75
2022-10-23T09:25:20.549Z,98568.88
2022-10-23T09:27:53.182Z,98551.47
2022-10-23T09:30:33.514Z,98540.66
2022-10-23T09:33:02.459Z,98528.53
2022-10-23T09:35:31.037Z,98528.91
2022-10-23T09:37:58.768Z,98525.84
2022-10-23T09:40:33.343Z,98521.00
2022-10-23T09:43:04.681Z,98518.31
2022-10-23T09:45:34.509Z,98507.50
2022-10-23T09:48:09.979Z,98511.81
2022-10-23T09:50:37.849Z,98492.78
2022-10-23T09:53:05.631Z,98499.66
2022-10-23T09:55:34.756Z,98501.78
2022-10-23T09:58:02.712Z,98498.03
2022-10-23T10:00:30.605Z,98491.44
2022-10-23T10:03:00.795Z,98502.13
2022-10-23T10:05:59.528Z,98506.69
2022-10-23T10:08:36.263Z,98518.25
2022-10-23T10:11:13.421Z,98521.31
2022-10-23T10:14:31.702Z,98536.63
2022-10-23T10:17:04.548Z,98525.38
2022-10-23T10:19:44.181Z,98510.13
2022-10-23T10:22:26.760Z,98522.94
2022-10-23T10:25:03.978Z,98501.88
2022-10-23T10:27:46.167Z,98499.66
2022-10-23T10:30:16.929Z,98496.56
2022-10-23T10:32:51.209Z,98498.88
2022-10-23T10:35:29.940Z,98508.13
2022-10-23T10:38:16.097Z,98502.38
2022-10-23T10:40:52.096Z,98489.66
2022-10-23T10:43:30.313Z,98481.16
2022-10-23T10:46:05.282Z,98458.56
2022-10-23T10:48:42.348Z,98437.56
2022-10-23T10:51:27.041Z,98441.34
2022-10-23T10:54:09.597Z,98439.56
2022-10-23T10:56:41.713Z,98466.56
2022-10-23T10:59:18.295Z,98468.16
2022-10-23T11:01:52.921Z,98470.97
2022-10-23T11:04:32.976Z,98479.47
2022-10-23T11:07:06.611Z,98468.03
2022-10-23T11:09:34.676Z,98471.28
2022-10-23T11:12:02.460Z,98472.19
2022-10-23T11:14:33.992Z,98464.19
2022-10-23T11:17:06.205Z,98445.28
2022-10-23T11:19:41.519Z,98442.88
2022-10-23T11:22:17.250Z,98444.53
2022-10-23T11:25:05.981Z,98433.81
2022-10-23T11:27:47.038Z,98425.41
2022-10-23T11:30:24.736Z,98429.31
2022-10-23T11:33:42.592Z,98409.59
2022-10-23T11:36:17.254Z,98407.81
2022-10-23T11:38:48.655Z,98405.38
2022-10-23T11:41:25.388Z,98400.75
2022-10-23T11:43:57.132Z,98400.59
2022-10-23T11:46:35.243Z,98392.97
2022-10-23T11:49:06.050Z,98396.34
2022-10-23T11:51:35.844Z,98395.56
2022-10-23T11:54:24.534Z,98397.03
2022-10-23T11:57:08.051Z,98403.22
2022-10-23T11:59:50.951Z,98390.75
2022-10-23T12:02:28.798Z,98391.78
2022-10-23T12:04:57.039Z,98384.66
2022-10-23T12:07:28.266Z,98384.31
2022-10-23T12:09:58.952Z,98386.06
2022-10-23T12:12:34.157Z,98384.56
2022-10-23T12:15:19.847Z,98383.91
2022-10-23T12:17:49.947Z,98385.78
2022-10-23T12:20:37.766Z,98369.50
2022-10-23T12:23:45.897Z,98364.59
2022-10-23T12:26:29.923Z,98374.00
2022-10-23T12:29:05.180Z,98368.19
2022-10-23T12:31:48.035Z,98375.00
2022-10-23T12:34:34.318Z,98373.22
2022-10-23T12:37:38.317Z,98372.03
2022-10-23T12:40:09.014Z,98360.88
2022-10-23T12:42:40.639Z,98358.69
2022-10-23T12:45:19.328Z,98354.81
2022-10-23T12:47:49.720Z,98351.75
2022-10-23T12:50:22.355Z,98357.41
2022-10-23T12:52:54.896Z,98346.41
2022-10-23T12:55:23.757Z,98339.44
2022-10-23T12:57:52.089Z,98341.81
2022-10-23T13:00:22.237Z,98343.88
2022-10-23T13:02:58.779Z,98338.09
2022-10-23T13:05:28.930Z,98326.72
2022-10-23T13:07:59.324Z,98317.41
2022-10-23T13:10:40.363Z,98323.50
2022-10-23T13:13:13.795Z,98316.16
2022-10-23T13:15:48.074Z,98301.22
2022-10-23T13:18:17.703Z,98297.53
2022-10-23T13:21:03.370Z,98291.28
2022-10-23T13:23:34.161Z,98287.47
2022-10-23T13:26:03.180Z,98285.03
2022-10-23T13:28:33.781Z,98271.91
2022-10-23T13:31:08.690Z,98269.78
2022-10-23T13:33:38.749Z,98265.22
2022-10-23T13:36:22.774Z,98276.09
2022-10-23T13:39:01.186Z,98273.38
2022-10-23T13:41:36.850Z,98276.91
2022-10-23T13:44:11.373Z,98276.44
2022-10-23T13:46:39.049Z,98277.78
2022-10-23T13:49:06.765Z,98277.59
2022-10-23T13:51:42.739Z,98280.44
2022-10-23T13:54:15.544Z,98278.25
2022-10-23T13:56:43.511Z,98275.09
2022-10-23T13:59:12.280Z,98279.94
2022-10-23T14:01:40.502Z,98264.44
2022-10-23T14:04:09.277Z,98268.34
2022-10-23T14:06:39.007Z,98260.78
2022-10-23T14:09:07.847Z,98262.03
2022-10-23T14:11:35.655Z,98251.38
2022-10-23T14:14:03.598Z,98256.31
2022-10-23T14:16:31.424Z,98256.53
2022-10-23T14:18:59.294Z,98265.69
2022-10-23T14:21:27.081Z,98261.91
2022-10-23T14:23:56.311Z,98271.09
2022-10-23T14:26:27.450Z,98261.97
2022-10-23T14:28:56.888Z,98265.16
2022-10-23T14:31:26.523Z,98259.75
2022-10-23T14:33:56.359Z,98247.66
2022-10-23T14:36:24.332Z,98241.09
2022-10-23T14:38:58.072Z,98235.91
2022-10-23T14:41:27.562Z,98238.84
2022-10-23T14:43:55.844Z,98242.03
2022-10-23T14:46:25.641Z,98248.81
2022-10-23T14:48:56.408Z,98245.94
2022-10-23T14:51:28.683Z,98246.78
2022-10-23T14:54:01.736Z,98239.72
2022-10-23T14:56:30.872Z,98235.41
2022-10-23T14:59:02.602Z,98232.00
2022-10-23T15:01:30.575Z,98235.84
2022-10-23T15:03:58.536Z,98226.72
2022-10-23T15:06:26.761Z,98225.94
2022-10-23T15:08:55.682Z,98232.66
2022-10-23T15:11:25.747Z,98218.50
2022-10-23T15:13:54.631Z,98217.38
2022-10-23T15:16:23.994Z,98219.28
2022-10-23T15:18:52.804Z,98204.19
2022-10-23T15:21:21.052Z,98204.19
2022-10-23T15:23:49.261Z,98205.38
2022-10-23T15:26:21.325Z,98208.06
2022-10-23T15:28:54.168Z,98203.03
2022-10-23T15:31:40.960Z,98206.00
2022-10-23T15:34:09.941Z,98206.94
2022-10-23T15:36:38.262Z,98210.59
2022-10-23T15:39:08.916Z,98201.59
2022-10-23T15:41:38.511Z,98189.47
2022-10-23T15:44:10.333Z,98193.19
2022-10-23T15:46:38.343Z,98192.84
2022-10-23T15:49:08.351Z,98190.97
2022-10-23T15:51:37.535Z,98180.34
2022-10-23T15:54:05.748Z,98183.41
2022-10-23T15:56:33.701Z,98180.84
2022-10-23T15:59:01.363Z,98190.81
2022-10-23T16:01:30.621Z,98178.34
2022-10-23T16:03:58.394Z,98181.81
2022-10-23T16:06:26.270Z,98173.31
2022-10-23T16:11:28.968Z,98168.34
2022-10-23T16:13:57.037Z,98163.59
2022-10-23T16:16:25.369Z,98161.28
2022-10-23T16:18:54.691Z,98170.53
2022-10-23T16:21:24.445Z,98168.75
2022-10-23T16:23:53.429Z,98164.72
2022-10-23T16:26:21.608Z,98156.81
2022-10-23T16:28:53.814Z,98170.59
2022-10-23T16:31:24.054Z,98169.84
2022-10-23T16:33:52.734Z,98175.41
2022-10-23T16:36:22.290Z,98174.44
2022-10-23T16:39:21.153Z,98163.38
2022-10-23T16:42:08.004Z,98172.84
2022-10-23T16:44:52.483Z,98176.06
2022-10-23T16:47:20.202Z,98168.06
2022-10-23T16:49:47.921Z,98166.06
2022-10-23T16:52:17.097Z,98176.06
2022-10-23T16:54:44.849Z,98157.56
2022-10-23T16:57:12.571Z,98163.84
2022-10-23T16:59:40.311Z,98177.53
2022-10-23T17:02:08.169Z,98172.09
2022-10-23T17:04:37.196Z,98173.53
2022-10-23T17:07:04.939Z,98191.59
2022-10-23T17:09:35.679Z,98191.13
2022-10-23T17:12:03.415Z,98187.47
2022-10-23T17:14:31.272Z,98193.84
2022-10-23T17:17:01.151Z,98199.44
2022-10-23T17:19:46.961Z,98204.03
2022-10-23T17:22:15.313Z,98207.50
2022-10-23T17:24:47.475Z,98204.16
2022-10-23T17:27:18.354Z,98215.97
2022-10-23T17:29:46.118Z,98235.31
2022-10-23T17:32:13.981Z,98233.38
2022-10-23T17:34:44.571Z,98237.16
2022-10-23T17:37:13.244Z,98234.88
2022-10-23T17:39:42.045Z,98240.50
2022-10-23T17:42:11.441Z,98243.66
2022-10-23T17:44:39.319Z,98230.25
2022-10-23T17:47:07.054Z,98224.75
2022-10-23T17:49:34.793Z,98221.59
2022-10-23T17:52:02.834Z,98217.78
2022-10-23T17:54:30.601Z,98224.53
2022-10-23T17:56:58.339Z,98231.88
2022-10-23T17:59:27.488Z,98227.06
2022-10-23T18:01:58.118Z,98254.88
2022-10-23T18:04:26.014Z,98265.91
2022-10-23T18:06:54.660Z,98269.63
2022-10-23T18:09:23.473Z,98286.19
2022-10-23T18:11:51.658Z,98294.91
2022-10-23T18:14:21.557Z,98297.13
2022-10-23T18:16:50.775Z,98291.53
2022-10-23T18:19:19.346Z,98309.88
2022-10-23T18:21:47.076Z,98320.22
2022-10-23T18:24:15.468Z,98336.38
2022-10-23T18:26:43.370Z,98385.28
2022-10-23T18:29:12.360Z,98397.72
2022-10-23T18:31:40.447Z,98403.06
2022-10-23T18:34:16.684Z,98395.16
2022-10-23T18:36:44.444Z,98380.84
2022-10-23T18:39:16.077Z,98367.19
2022-10-23T18:41:46.159Z,98361.97
2022-10-23T18:44:16.675Z,98361.06
2022-10-23T18:46:44.974Z,98355.13
2022-10-23T18:49:14.410Z,98347.63
2022-10-23T18:51:43.588Z,98353.09
2022-10-23T18:54:13.551Z,98351.34
2022-10-23T18:56:41.723Z,98338.72
2022-10-23T18:59:13.254Z,98338.22
2022-10-23T19:01:41.518Z,98337.97
2022-10-23T19:04:11.624Z,98349.09
2022-10-23T19:06:40.838Z,98345.84
2022-10-23T19:09:13.662Z,98356.25
2022-10-23T19:11:42.301Z,98347.00
2022-10-23T19:14:10.546Z,98345.53
2022-10-23T19:16:40.918Z,98349.06
2022-10-23T19:19:13.734Z,98344.91
2022-10-23T19:21:43.608Z,98351.81
2022-10-23T19:24:16.881Z,98337.03
2022-10-23T19:26:45.363Z,98331.81
2022-10-23T19:29:16.962Z,98331.88
2022-10-23T19:31:48.902Z,98316.41
2022-10-23T19:34:19.674Z,98318.72
2022-10-23T19:36:49.269Z,98332.13
2022-10-23T19:39:17.256Z,98331.19
2022-10-23T19:41:45.038Z,98355.69
2022-10-23T19:44:14.501Z,98354.84
2022-10-23T19:46:44.633Z,98354.41
2022-10-23T19:49:12.483Z,98348.69
2022-10-23T19:51:40.414Z,98345.13
2022-10-23T19:54:10.526Z,98345.09
2022-10-23T19:56:38.767Z,98337.22
2022-10-23T19:59:06.950Z,98339.84
2022-10-23T20:01:35.993Z,98334.94
2022-10-23T20:04:03.875Z,98345.81
2022-10-23T20:06:34.507Z,98315.66
2022-10-23T20:09:02.396Z,98325.44
2022-10-23T20:11:32.588Z,98318.91
2022-10-23T20:14:00.852Z,98324.78
2022-10-23T20:16:30.457Z,98328.81
2022-10-23T20:18:58.958Z,98327.06
2022-10-23T20:21:26.710Z,98327.59
2022-10-23T20:23:54.459Z,98323.88
2022-10-23T20:26:22.532Z,98335.66
2022-10-23T20:28:53.751Z,98304.44
2022-10-23T20:31:25.240Z,98323.34
2022-10-23T20:33:53.488Z,98351.25
2022-10-23T20:36:27.625Z,98324.19
2022-10-23T20:38:55.476Z,98320.09
2022-10-23T20:41:24.988Z,98323.97
2022-10-23T20:43:55.442Z,98330.50
2022-10-23T20:46:23.786Z,98324.06
2022-10-23T20:48:51.832Z,98332.25
2022-10-23T20:51:21.896Z,98335.53
2022-10-23T20:53:50.761Z,98329.97
2022-10-23T20:56:20.103Z,98328.84
2022-10-23T20:58:48.124Z,98327.88
2022-10-23T21:01:18.521Z,98330.47
2022-10-23T21:03:51.120Z,98329.75
2022-10-23T21:06:19.894Z,98332.97
2022-10-23T21:08:47.773Z,98330.13
2022-10-23T21:11:18.074Z,98331.41
2022-10-23T21:13:46.098Z,98341.19
2022-10-23T21:16:15.094Z,98346.00
2022-10-23T21:18:46.648Z,98344.72
2022-10-23T21:21:16.975Z,98342.78
2022-10-23T21:23:44.799Z,98347.38
2022-10-23T21:26:12.701Z,98347.78
2022-10-23T21:28:47.278Z,98349.03
2022-10-23T21:31:24.864Z,98347.44
2022-10-23T21:33:54.059Z,98340.09
2022-10-23T21:36:23.945Z,98339.19
2022-10-23T21:38:54.203Z,98340.13
2022-10-23T21:41:24.016Z,98339.56
2022-10-23T21:43:53.789Z,98345.66
2022-10-23T21:46:22.795Z,98345.81
2022-10-23T21:48:50.827Z,98353.56
2022-10-23T21:51:23.253Z,98345.91
2022-10-23T21:53:51.377Z,98343.47
2022-10-23T21:56:31.874Z,98341.16
2022-10-23T21:59:01.408Z,98337.63
2022-10-23T22:01:29.594Z,98338.28
2022-10-23T22:03:57.855Z,98336.69
2022-10-23T22:06:29.745Z,98327.81
2022-10-23T22:08:59.156Z,98320.66
2022-10-23T22:11:28.181Z,98321.94
2022-10-23T22:13:56.134Z,98322.81
2022-10-23T22:16:23.956Z,98323.38
2022-10-23T22:18:51.799Z,98311.50
2022-10-23T22:21:22.211Z,98307.97
2022-10-23T22:23:52.011Z,98313.72
2022-10-23T22:26:24.556Z,98311.53
2022-10-23T22:28:53.533Z,98314.97
2022-10-23T22:31:23.717Z,98303.88
2022-10-23T22:33:51.499Z,98311.44
2022-10-23T22:36:19.675Z,98321.44
2022-10-23T22:38:47.805Z,98315.63
2022-10-23T22:41:17.464Z,98314.28
2022-10-23T22:43:45.274Z,98308.41
2022-10-23T22:46:15.743Z,98321.97
2022-10-23T22:48:43.697Z,98317.84
2022-10-23T22:51:12.742Z,98304.78
2022-10-23T22:53:40.464Z,98317.69
2022-10-23T22:56:10.093Z,98322.59
2022-10-23T22:58:39.361Z,98330.69
2022-10-23T23:01:10.083Z,98326.16
2022-10-23T23:03:38.478Z,98332.28
2022-10-23T23:06:07.741Z,98332.38
2022-10-23T23:08:36.395Z,98328.13
2022-10-23T23:11:04.423Z,98319.56
2022-10-23T23:13:32.393Z,98333.44
2022-10-23T23:16:02.007Z,98333.78
2022-10-23T23:18:29.728Z,98333.22
2022-10-23T23:21:01.646Z,98336.38
2022-10-23T23:23:29.752Z,98344.38
2022-10-23T23:25:58.201Z,98330.34
2022-10-23T23:28:25.947Z,98333.38
2022-10-23T23:31:05.378Z,98332.38
2022-10-23T23:33:33.062Z,98336.47
2022-10-23T23:36:00.964Z,98337.34
2022-10-23T23:38:28.771Z,98339.38
2022-10-23T23:40:56.434Z,98330.19
2022-10-23T23:43:24.261Z,98358.78
2022-10-23T23:45:51.985Z,98344.47
2022-10-23T23:48:21.118Z,98340.72
2022-10-23T23:50:48.807Z,98339.88
2022-10-23T23:53:16.535Z,98346.16
2022-10-23T23:58:17.096Z,98349.25
